^^
Your Local Weather - Clay, NY Station Historical Data
Daily Summary for August 8, 2017 Units:  English    Metric   Both
« Previous Day
Next Day »
Daily Weekly Monthly Yearly Custom
  High: Low: Average:
Temperature: 75.3 °F 56.3 °F 65.4 °F
Dew Point: 63.8 °F 47.8 °F 56.7 °F
Humidity: 95% 45% 76%
Wind Speed: 3.0mph 0.0mph 0.8mph
Wind Gust: 8.0mph - -
Wind- - WNW
Pressure: 30.05 in 29.90 in -
Precipitation: 0.01 in    
Historical Graphs
 
 
Tabular Data for August 8, 2017
Time Temperature Dew Point Pressure Wind Wind Speed Wind Gust Humidity Rainfall Rate (Hourly) solar
00:04 61.1 °F 59.1 °F 29.90 in Calm     93% 0.00 in 0 W/m2
00:10 61.1 °F 59.1 °F 29.90 in Calm     93% 0.00 in 0 W/m2
00:16 61.1 °F 59.1 °F 29.90 in Calm     93% 0.00 in 0 W/m2
00:22 61.1 °F 59.1 °F 29.90 in Calm     93% 0.00 in 0 W/m2
00:28 61.1 °F 59.1 °F 29.90 in Calm     93% 0.00 in 0 W/m2
00:30 61.1 °F 59.1 °F 29.90 in Calm     93% 0.00 in 0 W/m2
00:32 61.1 °F 59.1 °F 29.90 in Calm     93% 0.00 in 0 W/m2
00:38 61.1 °F 59.1 °F 29.90 in Calm   1.0 mph 93% 0.00 in 0 W/m2
00:44 61.1 °F 59.1 °F 29.90 in Calm     93% 0.00 in 0 W/m2
00:50 61.0 °F 59.0 °F 29.90 in Calm     93% 0.00 in 0 W/m2
00:56 61.0 °F 59.0 °F 29.90 in Calm     93% 0.00 in 0 W/m2
01:02 61.0 °F 59.3 °F 29.90 in Calm     94% 0.00 in 0 W/m2
01:08 60.9 °F 59.2 °F 29.90 in Calm     94% 0.00 in 0 W/m2
01:14 60.9 °F 58.9 °F 29.90 in Calm     93% 0.00 in 0 W/m2
01:20 60.8 °F 58.8 °F 29.90 in Calm     93% 0.00 in 0 W/m2
01:22 60.8 °F 58.8 °F 29.90 in Calm     93% 0.00 in 0 W/m2
01:28 60.8 °F 58.8 °F 29.90 in Calm     93% 0.00 in 0 W/m2
01:34 60.8 °F 58.8 °F 29.90 in Calm     93% 0.00 in 0 W/m2
01:40 60.8 °F 58.8 °F 29.90 in Calm     93% 0.00 in 0 W/m2
01:46 60.7 °F 59.0 °F 29.90 in Calm     94% 0.00 in 0 W/m2
01:52 60.6 °F 58.9 °F 29.90 in Calm     94% 0.00 in 0 W/m2
01:58 60.5 °F 58.8 °F 29.90 in Calm     94% 0.00 in 0 W/m2
02:04 60.4 °F 58.7 °F 29.90 in Calm     94% 0.00 in 0 W/m2
02:10 60.3 °F 58.3 °F 29.90 in Calm     93% 0.00 in 0 W/m2
02:16 60.2 °F 58.5 °F 29.90 in Calm     94% 0.00 in 0 W/m2
02:22 60.2 °F 58.5 °F 29.90 in Calm     94% 0.00 in 0 W/m2
02:28 60.0 °F 58.3 °F 29.90 in Calm     94% 0.00 in 0 W/m2
02:34 60.0 °F 58.3 °F 29.90 in Calm     94% 0.00 in 0 W/m2
02:40 59.8 °F 58.1 °F 29.90 in Calm     94% 0.00 in 0 W/m2
02:46 59.8 °F 58.1 °F 29.90 in Calm     94% 0.00 in 0 W/m2
02:52 59.7 °F 58.0 °F 29.90 in Calm     94% 0.00 in 0 W/m2
02:58 59.5 °F 57.8 °F 29.90 in Calm     94% 0.00 in 0 W/m2
03:04 59.5 °F 57.8 °F 29.90 in Calm     94% 0.00 in 0 W/m2
03:10 59.5 °F 57.8 °F 29.90 in Calm     94% 0.00 in 0 W/m2
03:16 59.3 °F 57.6 °F 29.90 in Calm     94% 0.00 in 0 W/m2
03:22 59.1 °F 57.4 °F 29.90 in Calm     94% 0.00 in 0 W/m2
03:28 59.0 °F 57.3 °F 29.90 in Calm     94% 0.00 in 0 W/m2
03:34 59.0 °F 57.3 °F 29.90 in Calm     94% 0.00 in 0 W/m2
03:40 59.1 °F 57.4 °F 29.90 in Calm     94% 0.00 in 0 W/m2
03:46 59.1 °F 57.4 °F 29.90 in Calm     94% 0.00 in 0 W/m2
03:52 59.2 °F 57.5 °F 29.90 in Calm     94% 0.00 in 0 W/m2
03:58 59.2 °F 57.5 °F 29.90 in Calm     94% 0.00 in 0 W/m2
04:04 59.2 °F 57.5 °F 29.90 in Calm     94% 0.00 in 0 W/m2
04:10 59.1 °F 57.4 °F 29.90 in Calm     94% 0.00 in 0 W/m2
04:16 59.1 °F 57.4 °F 29.91 in Calm     94% 0.00 in 0 W/m2
04:22 59.1 °F 57.4 °F 29.91 in Calm     94% 0.00 in 0 W/m2
04:28 59.3 °F 57.6 °F 29.90 in Calm     94% 0.00 in 0 W/m2
04:34 59.5 °F 57.8 °F 29.90 in Calm     94% 0.00 in 0 W/m2
04:40 59.5 °F 57.8 °F 29.90 in Calm     94% 0.00 in 0 W/m2
04:46 59.6 °F 57.9 °F 29.91 in Calm     94% 0.00 in 0 W/m2
04:52 59.6 °F 57.9 °F 29.90 in Calm     94% 0.00 in 0 W/m2
04:58 59.7 °F 58.0 °F 29.90 in Calm   1.0 mph 94% 0.00 in 0 W/m2
05:06 59.6 °F 57.9 °F 29.91 in Calm     94% 0.00 in 0 W/m2
05:12 59.5 °F 57.8 °F 29.91 in Calm     94% 0.00 in 0 W/m2
05:18 59.6 °F 57.9 °F 29.91 in Calm   2.0 mph 94% 0.00 in 0 W/m2
05:24 59.8 °F 58.1 °F 29.91 in Calm     94% 0.00 in 0 W/m2
05:30 60.0 °F 58.3 °F 29.91 in Calm     94% 0.00 in 0 W/m2
05:36 60.2 °F 58.5 °F 29.92 in Calm   1.0 mph 94% 0.00 in 0 W/m2
05:42 60.5 °F 59.1 °F 29.92 in Calm     95% 0.00 in 0 W/m2
05:48 60.6 °F 59.2 °F 29.92 in Calm     95% 0.00 in 0 W/m2
05:54 60.7 °F 59.3 °F 29.92 in Calm     95% 0.00 in 0 W/m2
06:00 60.7 °F 59.3 °F 29.92 in Calm     95% 0.00 in 0 W/m2
06:06 60.6 °F 59.2 °F 29.92 in Calm   1.0 mph 95% 0.00 in 0 W/m2
06:12 60.6 °F 59.2 °F 29.92 in Calm     95% 0.00 in 0 W/m2
06:18 60.4 °F 59.0 °F 29.92 in Calm     95% 0.00 in 5 W/m2
06:24 60.2 °F 58.5 °F 29.93 in Calm     94% 0.00 in 7 W/m2
06:30 60.1 °F 58.4 °F 29.92 in Calm     94% 0.00 in 11 W/m2
06:36 60.0 °F 58.6 °F 29.93 in Calm     95% 0.00 in 12 W/m2
06:42 59.8 °F 58.4 °F 29.93 in Calm     95% 0.00 in 14 W/m2
06:48 59.7 °F 58.0 °F 29.93 in Calm     94% 0.00 in 18 W/m2
06:54 59.7 °F 58.0 °F 29.93 in Calm     94% 0.00 in 51 W/m2
07:00 60.0 °F 58.6 °F 29.93 in Calm     95% 0.00 in 84 W/m2
07:06 60.3 °F 58.9 °F 29.93 in Calm     95% 0.00 in 65 W/m2
07:12 61.1 °F 59.7 °F 29.93 in Calm     95% 0.00 in 125 W/m2
07:18 61.6 °F 60.2 °F 29.94 in Calm     95% 0.00 in 91 W/m2
07:26 61.3 °F 59.9 °F 29.94 in Calm     95% 0.00 in 26 W/m2
07:32 61.1 °F 59.7 °F 29.94 in Calm     95% 0.00 in 28 W/m2
07:38 61.0 °F 59.6 °F 29.94 in Calm     95% 0.00 in 44 W/m2
07:44 61.1 °F 59.7 °F 29.94 in Calm     95% 0.00 in 141 W/m2
07:50 61.8 °F 60.4 °F 29.94 in Calm     95% 0.00 in 223 W/m2
07:56 62.5 °F 61.0 °F 29.94 in Calm     95% 0.00 in 246 W/m2
08:03 62.7 °F 61.2 °F 29.95 in Calm     95% 0.00 in 197 W/m2
08:08 62.9 °F 61.4 °F 29.95 in Calm     95% 0.00 in 151 W/m2
08:14 63.0 °F 61.2 °F 29.95 in Calm   1.0 mph 94% 0.00 in 128 W/m2
08:20 62.8 °F 61.0 °F 29.95 in West 1.0 mph 1.0 mph 94% 0.00 in 121 W/m2
08:26 62.8 °F 61.0 °F 29.95 in West 1.0 mph 2.0 mph 94% 0.00 in 142 W/m2
08:32 63.1 °F 61.3 °F 29.95 in West 1.0 mph 1.0 mph 94% 0.00 in 343 W/m2
08:38 63.4 °F 61.6 °F 29.95 in WNW 1.0 mph 1.0 mph 94% 0.00 in 374 W/m2
08:44 63.9 °F 62.1 °F 29.95 in North 1.0 mph 3.0 mph 94% 0.00 in 448 W/m2
08:50 64.7 °F 62.6 °F 29.95 in North 1.0 mph 2.0 mph 93% 0.00 in 490 W/m2
08:56 65.6 °F 63.5 °F 29.95 in SW 1.0 mph 2.0 mph 93% 0.00 in 603 W/m2
09:02 65.8 °F 62.8 °F 29.95 in Calm     90% 0.00 in 251 W/m2
09:08 66.0 °F 62.3 °F 29.95 in North 1.0 mph 4.0 mph 88% 0.00 in 631 W/m2
09:14 66.8 °F 62.8 °F 29.95 in NW 1.0 mph 2.0 mph 87% 0.00 in 640 W/m2
09:20 67.8 °F 62.8 °F 29.95 in NW 1.0 mph 1.0 mph 84% 0.00 in 612 W/m2
09:26 68.4 °F 61.6 °F 29.95 in NW 1.0 mph 2.0 mph 79% 0.00 in 631 W/m2
09:32 68.8 °F 61.3 °F 29.95 in West 2.0 mph 2.0 mph 77% 0.00 in 626 W/m2
09:38 69.2 °F 61.3 °F 29.96 in NW 1.0 mph 2.0 mph 76% 0.00 in 631 W/m2
09:44 69.3 °F 61.4 °F 29.96 in North 1.0 mph 1.0 mph 76% 0.00 in 628 W/m2
09:50 69.3 °F 60.3 °F 29.96 in NNE 2.0 mph 3.0 mph 73% 0.00 in 652 W/m2
09:56 69.7 °F 59.9 °F 29.95 in NNW 2.0 mph 5.0 mph 71% 0.00 in 770 W/m2
10:02 70.3 °F 61.2 °F 29.96 in NE 2.0 mph 2.0 mph 73% 0.00 in 789 W/m2
10:08 70.5 °F 61.4 °F 29.96 in WNW 1.0 mph 2.0 mph 73% 0.00 in 195 W/m2
10:14 69.6 °F 60.6 °F 29.96 in SW 1.0 mph 6.0 mph 73% 0.00 in 192 W/m2
10:20 69.2 °F 61.3 °F 29.96 in NNW 1.0 mph 1.0 mph 76% 0.00 in 657 W/m2
10:26 71.1 °F 61.6 °F 29.96 in NW 2.0 mph 4.0 mph 72% 0.00 in 775 W/m2
10:32 71.3 °F 60.2 °F 29.96 in North 3.0 mph 6.0 mph 68% 0.00 in 925 W/m2
10:38 72.0 °F 62.1 °F 29.96 in NW 3.0 mph 6.0 mph 71% 0.00 in 967 W/m2
10:44 71.9 °F 62.8 °F 29.96 in NW 2.0 mph 3.0 mph 73% 0.00 in 195 W/m2
10:50 70.0 °F 60.9 °F 29.96 in SSW 1.0 mph 1.0 mph 73% 0.00 in 178 W/m2
10:56 69.6 °F 62.8 °F 29.96 in WSW 1.0 mph 2.0 mph 79% 0.00 in 831 W/m2
11:02 71.4 °F 63.8 °F 29.96 in WNW 1.0 mph 2.0 mph 77% 0.00 in 828 W/m2
11:08 71.7 °F 60.2 °F 29.96 in NW 1.0 mph 3.0 mph 67% 0.00 in 831 W/m2
11:14 71.9 °F 59.9 °F 29.97 in NNW 2.0 mph 2.0 mph 66% 0.00 in 889 W/m2
11:20 72.8 °F 62.4 °F 29.97 in NNW 2.0 mph 3.0 mph 70% 0.00 in 909 W/m2
11:26 72.9 °F 60.0 °F 29.97 in WNW 2.0 mph 3.0 mph 64% 0.00 in 990 W/m2
11:32 71.8 °F 58.5 °F 29.97 in West 2.0 mph 3.0 mph 63% 0.00 in 155 W/m2
11:38 72.2 °F 59.8 °F 29.97 in NNW 2.0 mph 4.0 mph 65% 0.00 in 954 W/m2
11:44 73.4 °F 61.3 °F 29.97 in NW 2.0 mph 3.0 mph 66% 0.00 in 1035 W/m2
11:50 72.6 °F 58.4 °F 29.97 in NNW 2.0 mph 4.0 mph 61% 0.00 in 281 W/m2
11:56 71.3 °F 58.9 °F 29.97 in West 2.0 mph 4.0 mph 65% 0.00 in 260 W/m2
12:02 71.6 °F 60.9 °F 29.97 in NW 1.0 mph 4.0 mph 69% 0.00 in 1044 W/m2
12:08 70.9 °F 57.2 °F 29.97 in NNW 2.0 mph 7.0 mph 62% 0.00 in 167 W/m2
12:14 70.1 °F 58.2 °F 29.97 in NW 2.0 mph 3.0 mph 66% 0.00 in 935 W/m2
12:20 72.4 °F 59.1 °F 29.96 in NW 2.0 mph 3.0 mph 63% 0.00 in 928 W/m2
12:26 73.0 °F 59.2 °F 29.97 in NNW 2.0 mph 5.0 mph 62% 0.00 in 947 W/m2
12:32 73.7 °F 59.4 °F 29.97 in SW 2.0 mph 3.0 mph 61% 0.00 in 997 W/m2
12:38 74.3 °F 61.3 °F 29.97 in North 2.0 mph 5.0 mph 64% 0.00 in 1004 W/m2
12:44 74.5 °F 57.8 °F 29.97 in NW 2.0 mph 4.0 mph 56% 0.00 in 1030 W/m2
12:50 73.7 °F 58.9 °F 29.97 in North 2.0 mph 4.0 mph 60% 0.00 in 967 W/m2
12:56 73.3 °F 58.6 °F 29.97 in NW 3.0 mph 5.0 mph 60% 0.00 in 1062 W/m2
13:02 74.0 °F 57.8 °F 29.97 in NW 3.0 mph 4.0 mph 57% 0.00 in 984 W/m2
13:08 74.4 °F 57.7 °F 29.97 in NW 3.0 mph 4.0 mph 56% 0.00 in 979 W/m2
13:14 74.8 °F 60.4 °F 29.97 in NW 2.0 mph 4.0 mph 61% 0.00 in 1025 W/m2
13:20 74.3 °F 56.1 °F 29.98 in NNW 2.0 mph 3.0 mph 53% 0.00 in 983 W/m2
13:26 74.3 °F 62.2 °F 29.97 in NNW 2.0 mph 3.0 mph 66% 0.00 in 1018 W/m2
13:32 75.2 °F 59.9 °F 29.97 in NNW 2.0 mph 3.0 mph 59% 0.00 in 1063 W/m2
13:38 74.3 °F 57.6 °F 29.97 in WNW 3.0 mph 5.0 mph 56% 0.00 in 1085 W/m2
13:44 74.5 °F 58.3 °F 29.98 in NW 3.0 mph 4.0 mph 57% 0.00 in 130 W/m2
13:50 72.5 °F 59.2 °F 29.97 in NW 2.0 mph 2.0 mph 63% 0.00 in 967 W/m2
13:56 73.4 °F 55.7 °F 29.98 in North 1.0 mph 3.0 mph 54% 0.00 in 930 W/m2
14:02 74.2 °F 56.5 °F 29.98 in WSW 2.0 mph 4.0 mph 54% 0.00 in 939 W/m2
14:08 74.4 °F 57.2 °F 29.98 in North 2.0 mph 4.0 mph 55% 0.00 in 1004 W/m2
14:14 74.2 °F 57.0 °F 29.98 in NW 2.0 mph 5.0 mph 55% 0.00 in 969 W/m2
14:20 73.3 °F 57.1 °F 29.98 in NNW 1.0 mph 1.0 mph 57% 0.00 in 1004 W/m2
14:26 73.9 °F 57.2 °F 29.98 in North 2.0 mph 4.0 mph 56% 0.00 in 1005 W/m2
14:32 72.3 °F 54.2 °F 29.98 in North 2.0 mph 2.0 mph 53% 0.00 in 197 W/m2
14:38 72.8 °F 56.2 °F 29.98 in NW 2.0 mph 3.0 mph 56% 0.00 in 127 W/m2
14:44 73.3 °F 58.1 °F 29.98 in SW 2.0 mph 5.0 mph 59% 0.00 in 926 W/m2
14:50 74.0 °F 56.3 °F 29.98 in WNW 3.0 mph 3.0 mph 54% 0.00 in 882 W/m2
14:56 73.5 °F 54.8 °F 29.98 in NW 3.0 mph 4.0 mph 52% 0.00 in 236 W/m2
15:03 73.5 °F 57.8 °F 29.98 in NW 3.0 mph 3.0 mph 58% 0.00 in 904 W/m2
15:08 73.7 °F 57.0 °F 29.98 in NW 2.0 mph 3.0 mph 56% 0.00 in 886 W/m2
15:14 73.5 °F 59.2 °F 29.98 in NW 2.0 mph 2.0 mph 61% 0.00 in 831 W/m2
15:20 74.1 °F 57.4 °F 29.98 in NNW 1.0 mph 1.0 mph 56% 0.00 in 814 W/m2
15:26 74.2 °F 56.5 °F 29.98 in NNE 2.0 mph 4.0 mph 54% 0.00 in 828 W/m2
15:32 75.3 °F 56.5 °F 29.99 in SSW 2.0 mph 4.0 mph 52% 0.00 in 858 W/m2
15:38 75.0 °F 54.0 °F 29.99 in NNW 2.0 mph 4.0 mph 48% 0.00 in 786 W/m2
15:44 74.2 °F 55.4 °F 29.99 in NNW 2.0 mph 3.0 mph 52% 0.00 in 772 W/m2
15:50 74.4 °F 54.0 °F 29.99 in North 2.0 mph 5.0 mph 49% 0.00 in 765 W/m2
15:56 74.1 °F 54.3 °F 29.99 in North 3.0 mph 6.0 mph 50% 0.00 in 742 W/m2
16:02 73.8 °F 52.9 °F 29.99 in NW 3.0 mph 3.0 mph 48% 0.00 in 731 W/m2
16:08 74.3 °F 53.9 °F 29.99 in ENE 2.0 mph 3.0 mph 49% 0.00 in 712 W/m2
16:14 74.4 °F 53.4 °F 29.99 in NW 1.0 mph 2.0 mph 48% 0.00 in 696 W/m2
16:20 74.3 °F 54.5 °F 29.99 in NW 1.0 mph 1.0 mph 50% 0.00 in 673 W/m2
16:26 74.4 °F 54.0 °F 29.99 in NW 1.0 mph 3.0 mph 49% 0.00 in 652 W/m2
16:32 74.3 °F 53.3 °F 29.99 in NNE 2.0 mph 2.0 mph 48% 0.00 in 638 W/m2
16:38 73.9 °F 53.0 °F 29.99 in North 2.0 mph 5.0 mph 48% 0.00 in 619 W/m2
16:44 73.7 °F 52.8 °F 29.99 in NNW 2.0 mph 4.0 mph 48% 0.00 in 619 W/m2
16:50 73.6 °F 50.9 °F 29.99 in NNW 2.0 mph 4.0 mph 45% 0.00 in 603 W/m2
16:56 73.5 °F 55.3 °F 29.99 in SW 2.0 mph 4.0 mph 53% 0.00 in 587 W/m2
17:02 73.6 °F 53.8 °F 29.99 in WNW 2.0 mph 2.0 mph 50% 0.00 in 461 W/m2
17:08 73.1 °F 54.9 °F 29.98 in North 2.0 mph 3.0 mph 53% 0.00 in 118 W/m2
17:14 73.0 °F 53.8 °F 29.98 in WNW 1.0 mph 3.0 mph 51% 0.00 in 100 W/m2
17:20 72.6 °F 52.9 °F 29.98 in NW 2.0 mph 8.0 mph 50% 0.00 in 62 W/m2
17:26 72.3 °F 52.6 °F 29.98 in NNW 2.0 mph 8.0 mph 50% 0.00 in 46 W/m2
17:32 72.2 °F 53.6 °F 29.98 in NNW 2.0 mph 2.0 mph 52% 0.00 in 53 W/m2
17:38 72.0 °F 52.9 °F 29.98 in NW 1.0 mph 3.0 mph 51% 0.00 in 49 W/m2
17:44 71.9 °F 53.3 °F 29.98 in West 2.0 mph 2.0 mph 52% 0.00 in 40 W/m2
17:50 71.9 °F 53.3 °F 29.98 in NNW 1.0 mph 3.0 mph 52% 0.00 in 40 W/m2
17:56 71.7 °F 53.1 °F 29.98 in NNW 1.0 mph 3.0 mph 52% 0.00 in 39 W/m2
18:02 71.5 °F 53.5 °F 29.98 in NNW 1.0 mph 2.0 mph 53% 0.00 in 39 W/m2
18:08 71.5 °F 54.0 °F 29.99 in NW 1.0 mph 2.0 mph 54% 0.00 in 37 W/m2
18:14 71.5 °F 54.0 °F 29.99 in WNW 1.0 mph 2.0 mph 54% 0.00 in 37 W/m2
18:20 71.4 °F 52.9 °F 29.99 in NNW 1.0 mph 1.0 mph 52% 0.00 in 35 W/m2
18:26 71.2 °F 50.5 °F 29.99 in NNW 1.0 mph 7.0 mph 48% 0.00 in 33 W/m2
18:32 71.0 °F 50.9 °F 29.99 in NNW 2.0 mph 2.0 mph 49% 0.00 in 33 W/m2
18:38 70.7 °F 51.1 °F 29.99 in NW 1.0 mph 2.0 mph 50% 0.00 in 33 W/m2
18:44 70.5 °F 52.5 °F 30.00 in NNE 1.0 mph 1.0 mph 53% 0.00 in 33 W/m2
18:50 70.3 °F 51.8 °F 30.00 in NNW 1.0 mph 1.0 mph 52% 0.00 in 32 W/m2
18:56 70.1 °F 52.2 °F 30.00 in NNW 1.0 mph 1.0 mph 53% 0.00 in 49 W/m2
19:02 69.8 °F 49.2 °F 30.00 in NNW 1.0 mph 1.0 mph 48% 0.00 in 28 W/m2
19:08 69.5 °F 47.8 °F 30.00 in NW 1.0 mph 3.0 mph 46% 0.00 in 26 W/m2
19:14 69.3 °F 49.3 °F 30.00 in Calm   1.0 mph 49% 0.00 in 25 W/m2
19:20 68.9 °F 48.9 °F 30.00 in Calm     49% 0.00 in 23 W/m2
19:26 68.4 °F 49.6 °F 30.00 in Calm   2.0 mph 51% 0.00 in 21 W/m2
19:32 68.1 °F 48.8 °F 30.01 in Calm     50% 0.00 in 19 W/m2
19:38 67.8 °F 49.0 °F 30.01 in Calm     51% 0.00 in 18 W/m2
19:44 67.4 °F 49.7 °F 30.01 in Calm     53% 0.00 in 16 W/m2
19:50 66.9 °F 49.7 °F 30.01 in Calm     54% 0.00 in 14 W/m2
19:56 66.5 °F 49.3 °F 30.01 in Calm     54% 0.00 in 12 W/m2
20:02 65.9 °F 52.9 °F 30.01 in Calm     63% 0.00 in 9 W/m2
20:08 64.7 °F 53.9 °F 30.02 in Calm     68% 0.00 in 7 W/m2
20:14 63.8 °F 54.6 °F 30.02 in Calm     72% 0.00 in 0 W/m2
20:20 62.9 °F 54.5 °F 30.02 in Calm     74% 0.00 in 0 W/m2
20:26 62.0 °F 53.2 °F 30.02 in Calm     73% 0.00 in 0 W/m2
20:32 61.4 °F 53.4 °F 30.02 in Calm     75% 0.00 in 0 W/m2
20:38 60.8 °F 52.5 °F 30.02 in Calm     74% 0.00 in 0 W/m2
20:44 60.5 °F 53.3 °F 30.02 in Calm     77% 0.00 in 0 W/m2
20:50 60.0 °F 52.4 °F 30.02 in Calm     76% 0.00 in 0 W/m2
20:56 59.6 °F 52.0 °F 30.02 in Calm     76% 0.00 in 0 W/m2
21:02 59.3 °F 51.7 °F 30.03 in Calm     76% 0.00 in 0 W/m2
21:08 58.9 °F 50.6 °F 30.03 in Calm     74% 0.00 in 0 W/m2
21:14 58.5 °F 51.0 °F 30.03 in Calm     76% 0.00 in 0 W/m2
21:20 58.4 °F 51.6 °F 30.03 in Calm     78% 0.00 in 0 W/m2
21:26 58.3 °F 51.1 °F 30.03 in Calm     77% 0.00 in 0 W/m2
21:32 58.0 °F 51.2 °F 30.03 in Calm     78% 0.00 in 0 W/m2
21:38 58.0 °F 52.2 °F 30.03 in Calm     81% 0.00 in 0 W/m2
21:44 57.7 °F 51.6 °F 30.03 in Calm     80% 0.00 in 0 W/m2
21:50 57.4 °F 50.9 °F 30.03 in Calm     79% 0.00 in 0 W/m2
21:56 57.3 °F 51.2 °F 30.04 in Calm     80% 0.00 in 0 W/m2
22:02 57.1 °F 51.3 °F 30.04 in Calm     81% 0.00 in 0 W/m2
22:08 57.0 °F 51.2 °F 30.04 in Calm     81% 0.00 in 0 W/m2
22:14 56.9 °F 51.5 °F 30.04 in Calm     82% 0.00 in 0 W/m2
22:20 56.7 °F 51.3 °F 30.04 in Calm     82% 0.00 in 0 W/m2
22:26 56.6 °F 51.2 °F 30.04 in Calm     82% 0.00 in 0 W/m2
22:28 56.6 °F 51.5 °F 30.04 in Calm     83% 0.00 in 0 W/m2
22:34 56.6 °F 51.5 °F 30.04 in Calm     83% 0.00 in 0 W/m2
22:40 56.5 °F 51.7 °F 30.04 in Calm     84% 0.00 in 0 W/m2
22:46 56.6 °F 52.1 °F 30.04 in Calm     85% 0.00 in 0 W/m2
22:52 56.8 °F 52.3 °F 30.04 in Calm     85% 0.00 in 0 W/m2
22:58 56.7 °F 52.2 °F 30.04 in Calm     85% 0.00 in 0 W/m2
23:04 56.7 °F 52.2 °F 30.04 in Calm     85% 0.00 in 0 W/m2
23:10 56.6 °F 52.1 °F 30.04 in Calm     85% 0.00 in 0 W/m2
23:18 56.4 °F 52.3 °F 30.05 in Calm     86% 0.00 in 0 W/m2
23:24 56.4 °F 52.3 °F 30.05 in Calm     86% 0.00 in 0 W/m2
23:28 56.5 °F 52.7 °F 30.05 in Calm     87% 0.00 in 0 W/m2
23:34 56.5 °F 52.7 °F 30.05 in Calm     87% 0.00 in 0 W/m2
23:40 56.5 °F 52.7 °F 30.05 in Calm     87% 0.00 in 0 W/m2
23:44 56.4 °F 52.6 °F 30.05 in Calm     87% 0.00 in 0 W/m2
23:50 56.3 °F 52.5 °F 30.05 in Calm     87% 0.00 in 0 W/m2
Country Meadow, Clay, NY, USA
Compliments of Weather Underground - 2 mb